Accueil
METAR-TAF:

METAR-TAF

Aéroports :

DeLand, Floride, États-Unis

latitude: 29-04-01N, longitude: 081-17-02W, altitude: 24 m

Observation

Le bulletin a été fait il y a 30 minutes, à 13:15 UTC
Vent 10 kt de sud
Température 21°C
Humidité 94%
Pression 1010 hPa
Visibilité: 8.0 km
Nuages épars à une hauteur de 2200 ft
Nuages fragmentés à une hauteur de 5000 ft
Ciel couvert à une hauteur de 7500 ft
pluie faible, brume

METAR: KDED 301315Z AUTO 17010KT 5SM -RA BR SCT022 BKN050 OVC075 21/20 A2983 RMK AO2 P0001 T02110202

Heure: 08:45 (13:45 UTC)


TAF: absent

Observations et prévisions météorologiques de plus de 4000 aéroports (messages METAR et TAF).

Les stations disponibles sont représentées par des disques jaunes et rouges sur la carte.

Passer la souris dessus pour voir le nom de la station.

Cliquer dessus pour voir les observations et prévisions météorologiques.

Pour changer de carte: cliquez sur les boutons verts avec une croix noire pour zoomer, sur le bouton vert avec un tiret pour effectuer un zoom arrière, ou sur les flèches vertes pour les cartes adjacentes.


METAR-TAF: